Time;durP1;ratioP1;P1;durP2;ratioP2;P2;SDS_P1;SDS_P2;PMS_P1;PMS_P2;Temp;Humidity;BMP_temperature;BMP_pressure;BME280_temperature;BME280_humidity;BME280_pressure;Samples;Min_cycle;Max_cycle;Signal;HPM_P1;HPM_P2
2023/10/01 00:01:44;;;;;;;19.52;10.77;;;;;;;-145.63;41.64;38910.81;5005191;28;20049;-67
2023/10/01 00:04:11;;;;;;;14.82;11.43;;;;;;;-145.63;41.37;38953.84;5023555;28;20195;-68
2023/10/01 00:06:38;;;;;;;13.57;11.98;;;;;;;-145.63;41.71;38953.84;5023689;28;20041;-70
2023/10/01 00:09:07;;;;;;;16.92;11.05;;;;;;;-145.63;41.62;38924.50;5011473;28;20049;-68
2023/10/01 00:11:39;;;;;;;16.38;10.75;;;;;;;-145.63;41.36;38932.34;5003864;28;20082;-68
2023/10/01 00:14:06;;;;;;;16.75;10.77;;;;;;;-145.63;41.37;38938.19;5010299;28;20353;-69
2023/10/01 00:16:32;;;;;;;19.90;10.75;;;;;;;-145.63;41.35;38934.28;5023502;28;20036;-69
2023/10/01 00:18:59;;;;;;;12.10;10.15;;;;;;;-145.63;41.61;38946.03;5004571;28;20072;-69
2023/10/01 00:21:27;;;;;;;19.23;11.32;;;;;;;-145.63;41.09;38965.56;5017159;28;20033;-69
2023/10/01 00:23:54;;;;;;;12.90;10.93;;;;;;;-145.63;41.23;38904.97;5012970;28;20097;-68
2023/10/01 00:26:20;;;;;;;15.52;11.07;;;;;;;-145.63;40.93;38934.28;5009336;28;20022;-68
2023/10/01 00:28:49;;;;;;;15.25;9.98;;;;;;;-145.63;41.05;38930.38;5022976;28;20048;-69
2023/10/01 00:31:17;;;;;;;13.32;11.25;;;;;;;-145.63;40.72;38936.25;5006405;28;20088;-68
2023/10/01 00:33:47;;;;;;;13.77;9.43;;;;;;;-145.63;40.79;38932.34;5024907;28;20034;-69
2023/10/01 00:36:13;;;;;;;14.27;10.32;;;;;;;-145.63;41.02;38914.72;5014101;28;20037;-69
2023/10/01 00:38:38;;;;;;;14.15;10.93;;;;;;;-145.63;40.91;38926.47;5015805;28;20022;-69
2023/10/01 00:41:07;;;;;;;13.95;10.43;;;;;;;-145.63;40.80;38965.56;5025565;28;20022;-70
2023/10/01 00:43:33;;;;;;;15.95;10.45;;;;;;;-145.63;41.04;38949.94;5027333;28;20018;-67
2023/10/01 00:45:59;;;;;;;17.30;10.88;;;;;;;-145.63;40.97;38938.19;5025963;28;20218;-68
2023/10/01 00:48:25;;;;;;;17.35;10.50;;;;;;;-145.63;40.85;38899.09;5012563;28;20034;-67
2023/10/01 00:50:52;;;;;;;18.45;10.40;;;;;;;-145.63;40.77;38936.25;5017360;28;20060;-68
2023/10/01 00:53:19;;;;;;;13.93;10.02;;;;;;;-145.63;40.55;38938.19;5026788;28;20021;-69
2023/10/01 00:55:45;;;;;;;15.55;10.70;;;;;;;-145.63;40.91;38932.34;5027197;28;20029;-69
2023/10/01 00:58:10;;;;;;;12.80;10.07;;;;;;;-145.63;41.06;38938.19;5026889;28;20041;-69
2023/10/01 01:00:37;;;;;;;13.82;10.98;;;;;;;-145.63;40.85;38918.66;5026711;28;20257;-69
2023/10/01 01:03:09;;;;;;;16.25;10.50;;;;;;;-145.63;40.86;38934.28;5026988;28;20072;-69
2023/10/01 01:05:35;;;;;;;16.15;11.13;;;;;;;-145.63;40.98;38934.28;5019371;28;20026;-68
2023/10/01 01:08:21;;;;;;;14.82;10.93;;;;;;;-145.63;41.10;38934.28;5010300;28;20056;-68
2023/10/01 01:10:49;;;;;;;13.13;10.35;;;;;;;-145.63;41.21;38977.31;5025317;28;20030;-69
2023/10/01 01:13:18;;;;;;;19.10;10.48;;;;;;;-145.63;41.00;38949.94;5006952;28;20042;-67
2023/10/01 01:15:51;;;;;;;14.10;10.80;;;;;;;-145.63;41.42;38926.47;5006797;28;20042;-68
2023/10/01 01:18:20;;;;;;;13.85;10.52;;;;;;;-145.63;41.46;38932.34;5019736;28;20045;-67
2023/10/01 01:20:48;;;;;;;12.68;11.38;;;;;;;-145.63;41.48;38973.41;5017525;28;20022;-68
2023/10/01 01:23:24;;;;;;;17.05;9.90;;;;;;;-145.63;41.92;38947.97;5011336;28;20079;-68
2023/10/01 01:25:52;;;;;;;17.00;9.80;;;;;;;-145.63;41.36;38961.66;5025154;28;20062;-68
2023/10/01 01:28:27;;;;;;;17.55;10.95;;;;;;;-145.63;41.44;38932.34;5006570;28;20026;-68
2023/10/01 01:30:55;;;;;;;19.95;10.45;;;;;;;-145.63;41.76;38946.03;5024659;28;20025;-68
2023/10/01 01:33:21;;;;;;;16.45;10.80;;;;;;;-145.63;41.91;38953.84;5011675;28;20026;-69
2023/10/01 01:35:50;;;;;;;12.85;10.85;;;;;;;-145.63;42.08;38996.88;5015638;28;20147;-68
2023/10/01 01:38:16;;;;;;;17.98;11.38;;;;;;;-145.63;42.29;39000.78;5020842;28;20026;-69
2023/10/01 01:40:47;;;;;;;15.40;10.13;;;;;;;-145.63;41.65;38971.44;5006224;28;20242;-70
2023/10/01 01:43:21;;;;;;;14.77;10.93;;;;;;;-145.63;41.92;38949.94;5006319;28;20057;-70
2023/10/01 01:45:48;;;;;;;17.55;10.60;;;;;;;-145.63;42.26;38969.50;5023274;28;20406;-70
2023/10/01 01:50:58;;;;;;;15.98;10.90;;;;;;;-145.63;42.03;38996.88;5015871;28;20045;-69
2023/10/01 01:53:34;;;;;;;15.10;10.65;;;;;;;-145.63;41.97;38846.28;5025670;28;20065;-70
2023/10/01 01:56:16;;;;;;;16.45;9.93;;;;;;;-145.63;42.07;38949.94;5025878;28;20033;-69
2023/10/01 01:58:43;;;;;;;16.00;9.98;;;;;;;-145.63;42.01;38989.03;5025865;28;20327;-71
2023/10/01 02:03:40;;;;;;;14.35;10.32;;;;;;;-145.63;42.12;38992.97;5006010;28;20076;-69
2023/10/01 02:06:07;;;;;;;15.32;10.65;;;;;;;-145.63;41.79;39014.47;5005998;28;20033;-68
2023/10/01 02:08:35;;;;;;;17.75;10.95;;;;;;;-145.63;41.93;38987.09;5012918;28;20314;-70
2023/10/01 02:11:09;;;;;;;14.55;10.00;;;;;;;-145.63;41.77;39002.72;5023062;28;20034;-69
2023/10/01 02:13:40;;;;;;;16.17;10.70;;;;;;;-145.63;41.79;39000.78;5008654;28;20398;-68
2023/10/01 02:16:35;;;;;;;11.52;10.15;;;;;;;-145.63;42.12;39006.66;5025293;28;20038;-69
2023/10/01 02:19:21;;;;;;;13.18;9.93;;;;;;;-145.63;42.02;38459.13;5006675;28;20181;-70
2023/10/01 02:21:52;;;;;;;14.90;10.60;;;;;;;-145.63;42.36;39004.69;5022099;28;20033;-71
2023/10/01 02:24:23;;;;;;;17.33;10.32;;;;;;;-145.63;41.99;38750.47;5024813;28;20018;-69
2023/10/01 02:26:58;;;;;;;;;;;;;;;-145.63;42.20;38969.50;5025547;28;20041;-70
2023/10/01 02:29:25;;;;;;;14.55;10.95;;;;;;;-145.63;42.14;38996.88;5023765;28;19913;-69
2023/10/01 02:31:57;;;;;;;17.40;11.48;;;;;;;-145.63;42.45;39004.69;5023945;28;20025;-68
2023/10/01 02:34:24;;;;;;;13.07;10.45;;;;;;;-145.63;42.41;38981.22;5024525;28;20237;-67
2023/10/01 02:36:51;;;;;;;15.02;10.35;;;;;;;-145.63;42.49;38987.09;5007654;28;20026;-68
2023/10/01 02:39:21;;;;;;;14.27;10.20;;;;;;;-145.63;42.41;39028.16;5017217;28;20030;-70
2023/10/01 02:42:26;;;;;;;14.10;10.10;;;;;;;-145.63;42.98;38996.88;5024795;28;20033;-69
2023/10/01 02:44:48;;;;;;;13.65;11.05;;;;;;;-145.63;42.79;39024.25;5024672;28;20042;-69
2023/10/01 02:47:22;;;;;;;17.48;10.63;;;;;;;-145.63;42.81;39020.34;5021007;28;20026;-68
2023/10/01 02:49:50;;;;;;;16.88;10.40;;;;;;;-145.63;42.95;39022.28;5005591;28;20306;-69
2023/10/01 02:52:18;;;;;;;16.75;10.50;;;;;;;-145.63;42.77;39030.13;5022819;28;20218;-70
2023/10/01 02:54:47;;;;;;;17.80;9.82;;;;;;;-145.63;42.68;39016.44;5024671;28;20045;-69
2023/10/01 02:57:23;;;;;;;13.88;10.13;;;;;;;-145.63;42.80;39051.63;5024712;28;20025;-70
2023/10/01 03:02:43;;;;;;;21.00;10.68;;;;;;;-145.63;42.72;39028.16;5012272;28;20084;-70
2023/10/01 03:07:53;;;;;;;12.82;10.02;;;;;;;-145.63;42.77;39034.03;5024208;28;20048;-69
2023/10/01 03:10:26;;;;;;;15.77;9.98;;;;;;;-145.63;43.13;39008.59;5004435;28;20358;-69
2023/10/01 03:12:55;;;;;;;12.80;9.93;;;;;;;-145.63;42.87;39047.72;5021335;28;20046;-69
2023/10/01 03:15:24;;;;;;;12.50;10.10;;;;;;;-145.63;42.79;39024.25;5041099;28;20079;-69
2023/10/01 03:18:36;;;;;;;13.90;10.63;;;;;;;-145.63;43.06;39022.28;5035844;28;20034;-70
2023/10/01 03:23:06;;;;;;;13.68;10.90;;;;;;;-145.63;43.28;39026.19;5007050;28;20026;-69
2023/10/01 03:25:42;;;;;;;14.65;10.27;;;;;;;-145.63;42.92;39018.38;5024353;28;20021;-70
2023/10/01 03:28:25;;;;;;;13.48;10.18;;;;;;;-145.63;42.86;39016.44;5005320;28;20030;-70
2023/10/01 03:31:29;;;;;;;11.90;9.90;;;;;;;-145.63;43.21;39059.44;5021027;28;20219;-70
2023/10/01 03:33:53;;;;;;;16.42;11.27;;;;;;;-145.63;43.03;39043.81;5005981;28;20061;-71
2023/10/01 03:36:32;;;;;;;12.32;10.40;;;;;;;-145.63;42.96;39067.28;5016477;28;20030;-69
2023/10/01 03:42:10;;;;;;;18.55;10.43;;;;;;;-145.63;43.05;39035.97;5011748;28;20298;-67
2023/10/01 03:44:58;;;;;;;16.40;10.70;;;;;;;-145.63;43.12;39043.81;5017564;28;20088;-69
2023/10/01 03:47:26;;;;;;;13.02;9.93;;;;;;;-145.63;42.97;39037.94;5008904;28;20053;-69
2023/10/01 03:49:57;;;;;;;14.88;10.75;;;;;;;-145.63;42.88;39024.25;5023588;28;20045;-68
2023/10/01 03:52:28;;;;;;;14.93;10.88;;;;;;;-145.63;43.06;39032.06;5003983;28;20107;-68
2023/10/01 03:57:52;;;;;;;13.77;10.27;;;;;;;-145.63;43.12;39071.19;5023832;28;20038;-68
2023/10/01 04:00:28;;;;;;;12.63;10.18;;;;;;;-145.63;42.86;39067.28;5023424;28;20025;-70
2023/10/01 04:02:54;;;;;;;17.30;11.10;;;;;;;-145.63;43.17;39030.13;5015060;28;20026;-68
2023/10/01 04:05:30;;;;;;;13.93;10.70;;;;;;;-145.63;43.04;39045.75;5003773;28;20040;-68
2023/10/01 04:07:59;;;;;;;11.73;9.82;;;;;;;-145.63;43.16;39024.25;5004586;28;20084;-68
2023/10/01 04:12:54;;;;;;;15.23;9.82;;;;;;;-145.63;43.31;39037.94;5007569;28;20112;-69
2023/10/01 04:15:27;;;;;;;13.82;11.02;;;;;;;-145.63;43.62;39045.75;5020721;28;20030;-69
2023/10/01 04:18:19;;;;;;;16.02;10.68;;;;;;;-145.63;43.45;39043.81;5015188;28;20030;-69
2023/10/01 04:20:49;;;;;;;;;;;;;;;-145.63;43.33;39028.16;5010285;28;20333;-69
2023/10/01 04:23:30;;;;;;;15.75;10.73;;;;;;;-145.63;43.38;39086.81;5020305;28;19916;-69
2023/10/01 04:26:04;;;;;;;15.25;10.73;;;;;;;-145.63;43.34;39057.50;5030924;28;20095;-67
2023/10/01 04:28:31;;;;;;;14.40;10.35;;;;;;;-145.63;43.18;39049.66;5023491;28;20372;-69
2023/10/01 04:30:57;;;;;;;13.32;11.00;;;;;;;-145.63;43.20;39016.44;5006589;28;20080;-68
2023/10/01 04:33:23;;;;;;;13.35;10.30;;;;;;;-145.63;43.11;39032.06;5015706;28;20049;-70
2023/10/01 04:35:55;;;;;;;13.77;9.98;;;;;;;-145.63;42.93;39039.88;5015765;28;20034;-70
2023/10/01 04:38:26;;;;;;;14.73;10.88;;;;;;;-145.63;43.19;38447.38;5007104;28;20030;-67
2023/10/01 04:40:52;;;;;;;15.57;11.33;;;;;;;-145.63;43.21;39016.44;5023282;28;20084;-67
2023/10/01 04:43:21;;;;;;;13.60;10.48;;;;;;;-145.63;43.17;39004.69;5023116;28;20759;-69
2023/10/01 04:45:52;;;;;;;18.10;10.52;;;;;;;-145.63;43.04;39024.25;5008122;28;20026;-69
2023/10/01 04:48:25;;;;;;;;;;;;;;;-145.63;43.43;39024.25;5024318;28;20140;-69
2023/10/01 04:50:54;;;;;;;21.42;10.80;;;;;;;-145.63;43.18;38985.13;5015695;28;19984;-68
2023/10/01 04:53:21;;;;;;;13.50;9.73;;;;;;;-145.63;42.57;39034.03;5006902;28;20049;-67
2023/10/01 04:56:01;;;;;;;16.45;10.95;;;;;;;-145.63;42.79;38992.97;5023324;28;20026;-68
2023/10/01 04:58:38;;;;;;;15.67;10.53;;;;;;;-145.63;42.70;38975.34;5003543;28;20089;-68
2023/10/01 05:01:11;;;;;;;13.48;10.95;;;;;;;-145.63;42.54;38996.88;5020992;28;20030;-68
2023/10/01 05:03:39;;;;;;;17.23;12.00;;;;;;;-145.63;42.44;38967.53;5009100;28;20026;-68
2023/10/01 05:06:11;;;;;;;13.90;10.30;;;;;;;-145.63;42.53;38979.28;5012987;28;20326;-67
2023/10/01 05:08:40;;;;;;;13.77;10.95;;;;;;;-145.63;42.92;39010.56;5017545;28;20030;-69
2023/10/01 05:11:10;;;;;;;15.98;10.23;;;;;;;-145.63;42.86;38973.41;5004625;28;20352;-69
2023/10/01 05:13:40;;;;;;;17.48;11.68;;;;;;;-145.63;42.77;38992.97;5022622;28;20107;-69
2023/10/01 05:16:06;;;;;;;15.13;10.60;;;;;;;-145.63;43.13;38996.88;5025485;28;20097;-69
2023/10/01 05:18:37;;;;;;;18.60;10.85;;;;;;;-145.63;43.17;38977.31;5012053;28;20198;-68
2023/10/01 05:21:11;;;;;;;14.75;10.48;;;;;;;-145.63;42.79;39035.97;5006627;28;20026;-68
2023/10/01 05:23:47;;;;;;;15.52;10.90;;;;;;;-145.63;42.46;38969.50;5012460;28;20017;-68
2023/10/01 05:26:20;;;;;;;12.18;9.57;;;;;;;-145.63;42.90;38992.97;5023864;28;20045;-68
2023/10/01 05:28:48;;;;;;;17.17;11.10;;;;;;;-145.63;42.58;38985.13;5006784;28;20093;-68
2023/10/01 05:31:24;;;;;;;12.98;10.25;;;;;;;-145.63;42.77;38985.13;5040472;28;20048;-67
2023/10/01 05:33:58;;;;;;;17.00;11.27;;;;;;;-145.63;43.28;38957.75;5030167;28;20330;-70
2023/10/01 05:36:26;;;;;;;15.20;10.30;;;;;;;-145.63;43.53;39004.69;5014055;28;20072;-69
2023/10/01 05:38:53;;;;;;;14.93;11.20;;;;;;;-145.63;43.68;38987.09;5013879;28;20048;-69
2023/10/01 05:41:29;;;;;;;15.75;11.40;;;;;;;-145.63;44.46;39014.47;5025896;28;20024;-68
2023/10/01 05:43:56;;;;;;;18.98;11.27;;;;;;;-145.63;44.57;39024.25;5026104;28;20026;-69
2023/10/01 05:46:27;;;;;;;18.98;11.68;;;;;;;-145.63;44.92;39022.28;5006496;28;20086;-68
2023/10/01 05:49:00;;;;;;;22.45;11.60;;;;;;;-145.63;44.99;39030.13;5022163;28;20107;-70
2023/10/01 05:51:31;;;;;;;16.85;12.18;;;;;;;-145.63;45.86;39012.50;5013916;28;20034;-70
2023/10/01 05:53:59;;;;;;;17.15;11.25;;;;;;;-145.63;46.00;39055.53;5014199;28;20034;-70
2023/10/01 05:56:36;;;;;;;17.77;11.80;;;;;;;-145.63;46.26;39037.94;5025401;28;20365;-70
2023/10/01 05:59:03;;;;;;;17.30;12.25;;;;;;;-145.63;47.65;39039.88;5024187;28;20266;-68
2023/10/01 06:01:33;;;;;;;16.75;12.35;;;;;;;-145.63;47.70;39043.81;5006465;28;20030;-69
2023/10/01 06:03:59;;;;;;;18.90;12.40;;;;;;;-145.63;48.01;39041.84;5022473;28;20064;-70
2023/10/01 06:06:24;;;;;;;16.20;12.60;;;;;;;-145.63;48.68;39041.84;5013849;28;20094;-69
2023/10/01 06:09:00;;;;;;;17.70;12.95;;;;;;;-145.63;48.28;39067.28;5013015;28;20030;-70
2023/10/01 06:11:41;;;;;;;14.32;12.73;;;;;;;-145.63;48.67;39045.75;5021760;28;20258;-68
2023/10/01 06:14:09;;;;;;;13.20;11.83;;;;;;;-145.63;49.03;39032.06;5012512;28;20040;-69
2023/10/01 06:16:38;;;;;;;22.42;13.40;;;;;;;-145.63;50.07;39043.81;5025503;28;20419;-68
2023/10/01 06:19:11;;;;;;;16.88;13.63;;;;;;;-145.63;50.62;39086.81;5008697;28;20022;-69
2023/10/01 06:21:39;;;;;;;17.10;13.32;;;;;;;-145.63;50.12;39037.94;5018837;28;20129;-69
2023/10/01 06:24:07;;;;;;;21.95;14.27;;;;;;;-145.63;49.82;39059.44;5016741;28;20026;-69
2023/10/01 06:26:36;;;;;;;17.63;14.25;;;;;;;-145.63;49.75;39086.81;5008981;28;20034;-68
2023/10/01 06:29:05;;;;;;;18.30;13.30;;;;;;;-145.63;50.17;39061.41;5024745;28;20248;-68
2023/10/01 06:34:24;;;;;;;19.05;13.95;;;;;;;-145.63;51.16;39110.28;5023695;28;20030;-67
2023/10/01 06:36:58;;;;;;;19.98;13.88;;;;;;;-145.63;50.99;39237.41;5010583;28;20133;-69
2023/10/01 06:39:35;;;;;;;26.83;14.60;;;;;;;-145.63;51.20;39088.78;5016363;28;20041;-68
2023/10/01 06:42:19;;;;;;;18.88;15.23;;;;;;;-145.63;51.85;39094.66;5024767;28;20032;-69
2023/10/01 06:44:50;;;;;;;16.63;13.25;;;;;;;-145.63;51.48;39114.22;5018647;28;20085;-68
2023/10/01 06:47:17;;;;;;;17.45;13.68;;;;;;;-145.63;51.60;39079.00;5007232;28;20022;-67
2023/10/01 06:49:57;;;;;;;19.35;13.93;;;;;;;-145.63;52.00;39108.34;5025096;28;20101;-69
2023/10/01 06:52:28;;;;;;;20.73;14.50;;;;;;;-145.63;53.13;39108.34;5005437;28;20030;-68
2023/10/01 06:55:01;;;;;;;16.02;14.25;;;;;;;-145.63;53.24;39110.28;5019151;28;20041;-68
2023/10/01 06:57:38;;;;;;;19.23;14.70;;;;;;;-145.63;53.90;39116.16;5024548;28;20036;-68
2023/10/01 07:00:13;;;;;;;22.58;14.68;;;;;;;-145.63;53.83;39094.66;5016202;28;20303;-68
2023/10/01 07:02:40;;;;;;;21.13;15.20;;;;;;;-145.63;54.58;39108.34;5009780;28;20294;-67
2023/10/01 07:05:06;;;;;;;16.75;11.98;;;;;;;-145.63;54.67;39125.94;5024047;28;20311;-67
2023/10/01 07:07:35;;;;;;;12.80;11.15;;;;;;;-145.63;55.09;39110.28;5004942;28;20060;-68
2023/10/01 07:10:10;;;;;;;15.65;12.50;;;;;;;-145.63;54.95;39133.75;5020846;28;20048;-68
2023/10/01 07:12:37;;;;;;;18.20;12.50;;;;;;;-145.63;55.45;39125.94;5011949;28;20046;-68
2023/10/01 07:15:04;;;;;;;13.68;10.88;;;;;;;-145.63;55.13;39118.13;5019483;28;20029;-69
2023/10/01 07:17:33;;;;;;;15.50;12.10;;;;;;;-145.63;55.52;39135.72;5020678;28;20524;-67
2023/10/01 07:19:59;;;;;;;17.02;11.85;;;;;;;-145.63;54.93;39102.47;5004628;28;20030;-67
2023/10/01 07:22:32;;;;;;;12.13;10.63;;;;;;;-145.63;55.40;39123.97;5023769;28;20134;-67
2023/10/01 07:24:59;;;;;;;12.52;11.23;;;;;;;-145.63;55.26;39092.69;5008795;28;20033;-67
2023/10/01 07:27:27;;;;;;;12.15;10.80;;;;;;;-145.63;55.52;39131.81;5015259;28;20030;-66
2023/10/01 07:29:54;;;;;;;13.55;10.90;;;;;;;-145.63;55.76;39135.72;5017685;28;20382;-67
2023/10/01 07:32:23;;;;;;;14.57;11.10;;;;;;;-145.63;55.44;39122.03;5006248;28;20046;-66
2023/10/01 07:34:58;;;;;;;14.05;10.88;;;;;;;-145.63;55.99;39112.25;5024214;28;20093;-66
2023/10/01 07:37:26;;;;;;;12.93;10.65;;;;;;;-145.63;55.83;39141.59;5004745;28;20092;-66
2023/10/01 07:39:55;;;;;;;12.70;10.60;;;;;;;-145.63;55.95;39123.97;5018775;28;20026;-66
2023/10/01 07:42:30;;;;;;;12.43;10.20;;;;;;;-145.63;55.70;39120.06;5023561;28;20049;-66
2023/10/01 07:44:58;;;;;;;18.02;11.40;;;;;;;-145.63;56.28;39079.00;5016641;28;20038;-67
2023/10/01 07:47:29;;;;;;;15.98;11.25;;;;;;;-145.63;56.01;39133.75;5006271;28;20061;-68
2023/10/01 07:50:02;;;;;;;10.98;9.85;;;;;;;-145.63;55.63;39125.94;5023311;28;20022;-68
2023/10/01 07:52:36;;;;;;;12.88;10.00;;;;;;;-145.63;56.03;39141.59;5003991;28;20028;-68
2023/10/01 07:55:29;;;;;;;14.95;10.05;;;;;;;-145.63;55.99;39143.53;5019889;28;20088;-66
2023/10/01 07:57:49;;;;;;;13.10;10.63;;;;;;;-145.63;56.02;39118.13;5023669;28;20029;-68
2023/10/01 08:00:34;;;;;;;12.07;9.52;;;;;;;-145.63;55.52;39123.97;5014190;28;20061;-67
2023/10/01 08:05:47;;;;;;;12.27;10.02;;;;;;;-145.63;55.55;39125.94;5018970;28;20065;-67
2023/10/01 08:08:14;;;;;;;16.25;10.50;;;;;;;-145.63;55.57;39112.25;5002182;28;20099;-67
2023/10/01 08:10:40;;;;;;;13.98;9.20;;;;;;;-145.63;55.82;39100.50;5003993;28;20026;-67
2023/10/01 08:13:07;;;;;;;13.27;9.95;;;;;;;-145.63;55.99;39131.81;5018598;28;20041;-67
2023/10/01 08:15:50;;;;;;;10.48;9.15;;;;;;;-145.63;55.60;39112.25;5041055;28;20029;-67
2023/10/01 08:21:17;;;;;;;15.35;10.05;;;;;;;-145.63;56.55;39151.38;5002261;28;19943;-67
2023/10/01 08:23:54;;;;;;;12.40;9.07;;;;;;;-145.63;56.41;39133.75;5008692;28;20022;-66
2023/10/01 08:29:07;;;;;;;13.38;9.30;;;;;;;-145.63;55.34;39122.03;5003710;28;20033;-67
2023/10/01 08:32:03;;;;;;;13.52;9.27;;;;;;;-145.63;56.25;39141.59;5023245;28;20022;-67
2023/10/01 08:34:27;;;;;;;11.63;8.20;;;;;;;-145.63;55.15;39129.84;5004249;28;20046;-67
2023/10/01 08:36:55;;;;;;;11.80;8.48;;;;;;;-145.63;54.89;39106.38;5017940;28;20036;-66
2023/10/01 08:39:35;;;;;;;11.10;8.77;;;;;;;-145.63;55.84;39112.25;5013381;28;20188;-67
2023/10/01 08:42:10;;;;;;;12.90;9.20;;;;;;;-145.63;55.99;39120.06;5014041;28;20302;-67
2023/10/01 08:44:44;;;;;;;13.15;9.05;;;;;;;-145.63;55.44;39098.56;5019573;28;20026;-67
2023/10/01 08:47:24;;;;;;;13.10;8.40;;;;;;;-145.63;55.34;39127.91;5003664;28;20053;-67
2023/10/01 08:49:51;;;;;;;14.20;8.73;;;;;;;-145.63;55.63;39125.94;5024243;28;20028;-68
2023/10/01 08:52:25;;;;;;;12.20;8.73;;;;;;;-145.63;54.88;39118.13;5009774;28;20058;-67
2023/10/01 08:54:55;;;;;;;12.25;9.27;;;;;;;-145.63;55.49;39086.81;5020990;28;20378;-67
2023/10/01 08:57:45;;;;;;;12.48;8.57;;;;;;;-145.63;55.75;39082.91;5027024;28;20033;-66
2023/10/01 09:00:19;;;;;;;11.13;8.70;;;;;;;-145.63;55.03;39118.13;5018240;28;20210;-66
2023/10/01 09:02:55;;;;;;;10.63;8.40;;;;;;;-145.63;55.02;39067.28;5007403;28;20027;-66
2023/10/01 09:05:26;;;;;;;11.18;7.75;;;;;;;-145.63;53.20;39110.28;5007128;28;20019;-67
2023/10/01 09:08:15;;;;;;;11.77;6.35;;;;;;;-145.63;52.73;39129.84;5005524;28;20050;-66
2023/10/01 09:10:53;;;;;;;11.32;7.00;;;;;;;-145.63;53.40;39108.34;5006864;28;20034;-66
2023/10/01 09:13:23;;;;;;;11.52;6.88;;;;;;;-145.63;52.71;39086.81;5023860;28;20049;-67
2023/10/01 09:15:56;;;;;;;12.35;6.55;;;;;;;-145.63;52.77;39149.41;5009242;28;20226;-68
2023/10/01 09:18:23;;;;;;;10.60;7.00;;;;;;;-145.63;52.92;39110.28;5016725;28;20093;-67
2023/10/01 09:21:08;;;;;;;8.85;6.40;;;;;;;-145.63;52.71;39088.78;5011609;28;20041;-67
2023/10/01 09:23:56;;;;;;;11.07;6.40;;;;;;;-145.63;52.38;39092.69;5023292;28;20034;-66
2023/10/01 09:26:39;;;;;;;9.07;6.25;;;;;;;-145.63;52.44;39037.94;5006675;28;20303;-67
2023/10/01 09:29:20;;;;;;;14.50;6.78;;;;;;;-145.63;51.69;39073.13;5006962;28;20404;-66
2023/10/01 09:31:56;;;;;;;8.15;6.32;;;;;;;-145.63;51.67;39043.81;5026322;28;20043;-65
2023/10/01 09:34:33;;;;;;;12.05;7.82;;;;;;;-145.63;51.76;39028.16;4991036;28;20223;-66
2023/10/01 09:37:12;;;;;;;11.88;6.70;;;;;;;-145.63;50.62;39122.03;5020955;28;20048;-64
2023/10/01 09:39:42;;;;;;;12.68;7.07;;;;;;;-145.63;51.02;38998.81;5014708;28;20025;-65
2023/10/01 09:42:25;;;;;;;8.38;5.95;;;;;;;-145.63;50.38;39020.34;5017181;28;20041;-65
2023/10/01 09:44:53;;;;;;;9.15;5.88;;;;;;;-145.63;49.54;38977.31;5021203;28;20022;-65
2023/10/01 09:47:24;;;;;;;10.32;6.25;;;;;;;-145.63;49.13;39016.44;5007034;28;20092;-66
2023/10/01 09:49:54;;;;;;;7.30;4.87;;;;;;;-145.63;49.08;38809.13;5025870;28;20041;-65
2023/10/01 09:52:27;;;;;;;9.73;5.18;;;;;;;-145.63;48.32;39053.59;5008559;28;20053;-66
2023/10/01 09:55:29;;;;;;;11.77;4.38;;;;;;;-145.63;47.41;39043.81;5019504;28;20038;-66
2023/10/01 09:57:56;;;;;;;10.75;4.72;;;;;;;-145.63;48.25;39067.28;5022291;28;20041;-66
2023/10/01 10:00:39;;;;;;;8.75;4.72;;;;;;;-145.63;47.89;39010.56;5015783;28;20023;-66
2023/10/01 10:03:12;;;;;;;11.05;4.57;;;;;;;-145.63;48.18;39020.34;5013073;28;20017;-64
2023/10/01 10:05:41;;;;;;;9.52;5.50;;;;;;;-145.63;47.76;39012.50;5022660;28;20050;-65
2023/10/01 10:08:20;;;;;;;8.60;4.50;;;;;;;-145.63;47.08;39000.78;5006087;28;20030;-65
2023/10/01 10:10:52;;;;;;;10.32;4.68;;;;;;;-145.63;47.58;39059.44;5006094;28;20123;-64
2023/10/01 10:13:48;;;;;;;9.30;4.60;;;;;;;-145.63;47.22;38987.09;5022435;28;20425;-65
2023/10/01 10:16:32;;;;;;;10.02;4.00;;;;;;;-145.63;46.54;38961.66;5025133;28;20053;-64
2023/10/01 10:19:05;;;;;;;9.55;4.32;;;;;;;-145.63;46.81;39004.69;5011563;28;20035;-65
2023/10/01 10:24:37;;;;;;;6.88;4.25;;;;;;;-145.63;45.69;39012.50;5014992;28;20255;-65
2023/10/01 10:27:08;;;;;;;10.23;4.53;;;;;;;-145.63;45.96;39016.44;5011642;28;20040;-66
2023/10/01 10:30:00;;;;;;;8.03;4.07;;;;;;;-145.63;45.90;38996.88;5022719;28;20025;-65
2023/10/01 10:32:31;;;;;;;9.35;4.35;;;;;;;-145.63;45.81;39008.59;5005371;28;20503;-65
2023/10/01 10:35:15;;;;;;;7.18;4.20;;;;;;;-145.63;45.74;39055.53;5005694;28;20085;-67
2023/10/01 10:37:56;;;;;;;11.10;4.28;;;;;;;-145.63;47.14;39071.19;5025130;28;20021;-63
2023/10/01 10:40:23;;;;;;;9.30;3.43;;;;;;;-145.63;44.32;38975.34;5007901;28;20034;-65
2023/10/01 10:42:58;;;;;;;6.90;3.22;;;;;;;-145.63;45.24;38971.44;5021597;28;20022;-65
2023/10/01 10:45:45;;;;;;;8.13;3.28;;;;;;;-145.63;44.79;39028.16;5015966;28;20026;-65
2023/10/01 10:48:24;;;;;;;10.50;3.70;;;;;;;-145.63;44.04;38961.66;5012150;28;20048;-65
2023/10/01 10:50:56;;;;;;;7.22;3.60;;;;;;;-145.63;44.00;39016.44;5019318;28;20203;-65
2023/10/01 10:53:40;;;;;;;10.07;3.55;;;;;;;-145.63;43.04;39004.69;5005599;28;20030;-64
2023/10/01 10:56:16;;;;;;;46.92;37.58;;;;;;;-145.63;44.38;38996.88;5024570;28;20033;-65
2023/10/01 10:58:53;;;;;;;10.07;4.75;;;;;;;-145.63;43.79;39004.69;5024492;28;20038;-65
2023/10/01 11:01:19;;;;;;;6.72;3.33;;;;;;;-145.63;43.14;39041.84;5007976;28;20022;-64
2023/10/01 11:03:59;;;;;;;10.13;4.15;;;;;;;-145.63;44.13;38994.91;5005014;28;20022;-63
2023/10/01 11:06:39;;;;;;;7.10;3.75;;;;;;;-145.63;43.59;38996.88;5004386;28;20022;-64
2023/10/01 11:09:25;;;;;;;7.30;3.38;;;;;;;-145.63;42.92;38934.28;5004689;28;20031;-64
2023/10/01 11:12:07;;;;;;;8.07;3.45;;;;;;;-145.63;42.81;39002.72;5009250;28;20072;-64
2023/10/01 11:14:37;;;;;;;6.88;3.13;;;;;;;-145.63;42.92;38959.72;5024205;28;20187;-64
2023/10/01 11:17:06;;;;;;;8.63;3.63;;;;;;;-145.63;43.32;38934.28;5024337;28;20083;-64
2023/10/01 11:19:36;;;;;;;7.60;3.60;;;;;;;-145.63;43.02;38953.84;5024553;28;20029;-63
2023/10/01 11:22:04;;;;;;;7.95;3.40;;;;;;;-145.63;42.24;38992.97;5023958;28;20029;-64
2023/10/01 11:24:43;;;;;;;8.05;3.22;;;;;;;-145.63;42.60;39010.56;5023960;28;20045;-64
2023/10/01 11:27:43;;;;;;;7.18;3.45;;;;;;;-145.63;42.82;38957.75;5017316;28;20070;-65
2023/10/01 11:30:19;;;;;;;8.20;3.85;;;;;;;-145.63;42.88;39026.19;5004403;28;20065;-65
2023/10/01 11:33:13;;;;;;;10.18;4.38;;;;;;;-145.63;42.45;38946.03;5007697;28;20470;-64
2023/10/01 11:36:06;;;;;;;10.38;3.63;;;;;;;-145.63;42.14;38914.72;5021739;28;20041;-64
2023/10/01 11:38:35;;;;;;;8.45;4.45;;;;;;;-145.63;42.65;38959.72;5005769;28;20064;-65
2023/10/01 11:41:13;;;;;;;9.05;5.10;;;;;;;-145.63;43.93;38953.84;5023855;28;20029;-64
2023/10/01 11:43:43;;;;;;;9.27;3.42;;;;;;;-145.63;42.81;38947.97;5023933;28;20025;-64
2023/10/01 11:46:23;;;;;;;11.65;4.13;;;;;;;-145.63;42.37;38965.56;5009176;28;20320;-64
2023/10/01 11:49:02;;;;;;;10.07;3.75;;;;;;;-145.63;42.33;38957.75;5016142;28;20042;-64
2023/10/01 11:51:45;;;;;;;7.43;3.08;;;;;;;-145.63;42.00;38991.00;5013249;28;20222;-65
2023/10/01 11:54:17;;;;;;;8.43;3.40;;;;;;;-145.63;42.12;39028.16;5010548;28;20026;-64
2023/10/01 11:56:47;;;;;;;8.05;3.13;;;;;;;-145.63;42.36;38961.66;5020949;28;20042;-64
2023/10/01 11:59:18;;;;;;;10.10;3.55;;;;;;;-145.63;41.98;38973.41;5003792;28;20388;-64
2023/10/01 12:01:52;;;;;;;8.85;3.92;;;;;;;-145.63;42.18;38989.03;5022785;28;20580;-64
2023/10/01 12:04:43;;;;;;;8.25;3.67;;;;;;;-145.63;41.42;39022.28;5006441;28;20030;-64
2023/10/01 12:07:17;;;;;;;8.55;3.20;;;;;;;-145.63;41.32;38985.13;5018150;28;20093;-66
2023/10/01 12:09:52;;;;;;;8.90;2.95;;;;;;;-145.63;41.80;38813.03;5012406;28;20026;-65